Scappoose, OR (97056)

07:10 PST le 13 février 2016 (GMT -0800)
4th & E.M. Watts | | Change Station
CLOSE
Current Station
Stations météorologiques personnelles
Location: Scappoose, OR
Altitude: 62 ft
Stations météo à proximité

Alt. 62 ft 45.75 °N, 122.88 °W | Updated 33 seconds ago

Couvert
Couvert
38.8 ° F
Paraît 39 ° F
N
0.0
Vent Variable Vent de NE

Aujourd'hui
Haut(e) -- | Bas -- ° F
--% Risque de précip.
Hier
Haut(e) -- | Bas -- ° F
Precip. -- pouce
Pression 30.35 pouce
Visibilité 10.0 Miles terrestres
Nuages Peu 4800 ft
Nuageux 7500 ft
Refroidissement éolien 39 ° F
Point de rosée 38 ° F
Humidité 99%
Précipitations 0.00 pouce
Profondeur de la couche neigeuse Non disponible.
7:17 AM 5:34 PM
Lune montante, 31% visible
METAR KSPB 131453Z AUTO 00000KT 10SM FEW048 BKN075 03/03 A3035 RMK AO2 SLP276 60001 T00280028 50004
Pression 30.35 pouce
Visibilité 10.0 Miles terrestres
Nuages Peu 4800 ft
Nuageux 7500 ft
Refroidissement éolien 39 ° F
Point de rosée 38 ° F
Humidité 99%
Précipitations 0.00 pouce
Profondeur de la couche neigeuse Non disponible.
7:17 AM 5:34 PM
Lune montante, 31% visible
METAR KSPB 131453Z AUTO 00000KT 10SM FEW048 BKN075 03/03 A3035 RMK AO2 SLP276 60001 T00280028 50004

10-Day Weather Forecast

Almanac

Astronomie

Feb. 13, 2016 Lever Coucher
Temps réel
Crépuscule civil
Crépuscule nautique
Crépuscule astronomique
Lune
Durée de lumière visible
Longueur du jour
Tomorrow will be .
, % of the Moon is Illuminated

Extrêmes aujourd'hui

State Highs State Lows

Community

WunderPhotos

Upload Photos

1,892,572 Photos téléchargées !

WunderBlog® & News

Nearby

Qualité de l'air

  Qualité de l'air Indice de la qualité de l'air Polluant
Not available.

Épaisseur de neige

Station Depth Altitude

Activité sismique

Ville Distance Mag. Time & Date
Minimum magnitude displayed is 2.5.

Températures des eaux côtières

Lieu Température

Stations

Stations météo à proximité

Emplacement de la station Température Refroidissement éolien Point de rosée Humidité Vent Precip. Alt. Mise à jour Type
                   

Watches & Warnings

There are currently no watches in effect.